createdAt,value
2024-01-11T00:02:46.353Z,36.3
2024-01-11T00:04:46.908Z,36.88
2024-01-11T00:07:46.314Z,35.95
2024-01-11T00:09:47.094Z,35.52
2024-01-11T00:12:46.285Z,35.99
2024-01-11T00:14:46.325Z,36.64
2024-01-11T00:17:47.006Z,37.18
2024-01-11T00:20:46.403Z,37.07
2024-01-11T00:23:46.474Z,37.06
2024-01-11T00:26:46.290Z,36.84
2024-01-11T00:28:47.043Z,36.88
2024-01-11T00:31:46.330Z,36.58
2024-01-11T00:34:46.890Z,37.12
2024-01-11T00:37:46.960Z,36.33
2024-01-11T00:40:46.323Z,35.97
2024-01-11T00:42:46.303Z,36.49
2024-01-11T00:44:46.487Z,35.68
2024-01-11T00:47:46.445Z,36.07
2024-01-11T00:50:46.356Z,36.18
2024-01-11T00:52:46.503Z,36.32
2024-01-11T00:55:46.335Z,36.82
2024-01-11T00:58:46.321Z,36.84
2024-01-11T01:00:46.471Z,36.27
2024-01-11T01:03:46.312Z,36.3
2024-01-11T01:05:46.512Z,36.17
2024-01-11T01:08:46.725Z,37.16
2024-01-11T01:11:46.293Z,37.15
2024-01-11T01:13:46.304Z,37.05
2024-01-11T01:15:47.104Z,37.38
2024-01-11T01:18:46.472Z,36.95
2024-01-11T01:21:46.676Z,36.59
2024-01-11T01:23:46.753Z,37.33
2024-01-11T01:26:46.335Z,37.08
2024-01-11T01:28:46.951Z,36.79
2024-01-11T01:31:47.101Z,36.98
2024-01-11T01:34:48.628Z,36.76
2024-01-11T01:36:46.530Z,36.28
2024-01-11T01:39:46.346Z,37.03
2024-01-11T01:41:46.403Z,37.12
2024-01-11T01:44:46.356Z,36.93
2024-01-11T01:47:46.418Z,37.11
2024-01-11T01:49:46.341Z,36.02
2024-01-11T01:51:46.992Z,35.81
2024-01-11T01:54:46.356Z,36.58
2024-01-11T01:57:46.812Z,36.19
2024-01-11T02:00:46.448Z,36.26
2024-01-11T02:02:46.972Z,36.66
2024-01-11T02:04:46.945Z,36.41
2024-01-11T02:06:47.269Z,36.4
2024-01-11T02:09:46.267Z,35.92
2024-01-11T02:11:46.780Z,36.31
2024-01-11T02:14:46.314Z,35.97
2024-01-11T02:16:46.284Z,36.02
2024-01-11T02:19:46.895Z,36.73
2024-01-11T02:22:46.334Z,36.14
2024-01-11T02:24:46.415Z,35.03
2024-01-11T02:27:46.313Z,36.04
2024-01-11T02:30:46.468Z,35.79
2024-01-11T02:33:46.336Z,36.04
2024-01-11T02:35:47.884Z,35.66
2024-01-11T02:38:47.082Z,36.02
2024-01-11T02:41:47.087Z,36.09
2024-01-11T02:44:46.321Z,37.03
2024-01-11T02:47:46.420Z,35.92
2024-01-11T02:50:46.388Z,37.09
2024-01-11T02:52:46.787Z,36.1
2024-01-11T02:55:46.722Z,36.74
2024-01-11T02:58:46.460Z,36.85
2024-01-11T03:01:46.701Z,37.09
2024-01-11T03:04:46.329Z,36.95
2024-01-11T03:06:46.559Z,36.89
2024-01-11T03:09:46.318Z,37.11
2024-01-11T03:12:46.267Z,35.88
2024-01-11T03:14:47.117Z,36.07
2024-01-11T03:17:47.225Z,36.18
2024-01-11T03:20:46.539Z,35.63
2024-01-11T03:22:46.523Z,36.45
2024-01-11T03:25:46.305Z,35.58
2024-01-11T03:27:46.310Z,35.76
2024-01-11T03:29:46.670Z,35.82
2024-01-11T03:32:46.613Z,36.2
2024-01-11T03:35:46.377Z,35.84
2024-01-11T03:37:47.095Z,35.5
2024-01-11T03:40:46.781Z,35.42
2024-01-11T03:43:46.260Z,35.7
2024-01-11T03:45:47.037Z,36.06
2024-01-11T03:48:46.435Z,36.27
2024-01-11T03:51:47.013Z,35.79
2024-01-11T03:54:46.320Z,35.95
2024-01-11T03:56:46.305Z,35.56
2024-01-11T03:59:46.345Z,35.53
2024-01-11T04:01:46.961Z,36.23
2024-01-11T04:04:46.306Z,35.75
2024-01-11T04:07:46.850Z,35.98
2024-01-11T04:09:47.245Z,35.47
2024-01-11T04:12:46.655Z,36.21
2024-01-11T04:15:46.417Z,35.76
2024-01-11T04:17:47.289Z,35.84
2024-01-11T04:20:46.351Z,35.95
2024-01-11T04:22:46.993Z,36.57
2024-01-11T04:25:47.212Z,36.6
2024-01-11T04:28:46.287Z,35.91
2024-01-11T04:30:46.581Z,36.24
2024-01-11T04:33:46.706Z,35.86
2024-01-11T04:37:46.309Z,36.04
2024-01-11T04:40:46.285Z,35.16
2024-01-11T04:43:46.267Z,35.95
2024-01-11T04:46:47.003Z,35.74
2024-01-11T04:49:46.323Z,35.52
2024-01-11T04:52:46.990Z,35.15
2024-01-11T04:55:46.289Z,36.22
2024-01-11T04:57:46.832Z,35.45
2024-01-11T05:00:46.320Z,35.71
2024-01-11T05:03:46.540Z,35.86
2024-01-11T05:06:46.353Z,36.51
2024-01-11T05:09:46.713Z,35.55
2024-01-11T05:12:47.145Z,35.17
2024-01-11T05:15:46.348Z,35.64
2024-01-11T05:17:46.451Z,35.83
2024-01-11T05:19:46.390Z,35.27
2024-01-11T05:22:46.262Z,35.76
2024-01-11T05:24:51.652Z,35.68
2024-01-11T05:27:46.273Z,35.51
2024-01-11T05:29:47.203Z,35.99
2024-01-11T05:32:46.810Z,35.39
2024-01-11T05:35:46.333Z,35.5
2024-01-11T05:37:46.755Z,35.81
2024-01-11T05:40:46.277Z,36.79
2024-01-11T05:42:46.377Z,36.36
2024-01-11T05:44:46.270Z,37.13
2024-01-11T05:46:46.916Z,36.76
2024-01-11T05:48:47.264Z,35.6
2024-01-11T05:51:46.269Z,36.11
2024-01-11T05:53:46.483Z,35.93
2024-01-11T05:56:46.525Z,35.41
2024-01-11T05:59:46.543Z,36.09
2024-01-11T06:01:46.294Z,35.72
2024-01-11T06:04:49.104Z,36.1
2024-01-11T06:06:47.033Z,36.14
2024-01-11T06:09:46.337Z,36.38
2024-01-11T06:12:46.610Z,35.66
2024-01-11T06:15:47.014Z,36.3
2024-01-11T06:18:46.305Z,35.77
2024-01-11T06:20:46.418Z,36.34
2024-01-11T06:23:46.871Z,35.62
2024-01-11T06:26:47.014Z,35.47
2024-01-11T06:29:46.344Z,35.87
2024-01-11T06:31:46.344Z,35.31
2024-01-11T06:34:46.647Z,36.26
2024-01-11T06:37:46.546Z,35.74
2024-01-11T06:39:46.615Z,35.83
2024-01-11T06:42:46.283Z,36.03
2024-01-11T06:44:46.348Z,35.29
2024-01-11T06:46:46.290Z,35.89
2024-01-11T06:49:46.374Z,36.13
2024-01-11T06:52:46.382Z,35.83
2024-01-11T06:55:46.535Z,36.07
2024-01-11T06:58:46.294Z,36.14
2024-01-11T07:00:47.001Z,36.22
2024-01-11T07:03:46.313Z,35.93
2024-01-11T07:05:46.520Z,35.55
2024-01-11T07:07:46.413Z,35.49
2024-01-11T07:10:46.939Z,35.14
2024-01-11T07:12:46.579Z,35.9
2024-01-11T07:14:46.784Z,36.03
2024-01-11T07:17:46.791Z,35.29
2024-01-11T07:20:46.691Z,35.49
2024-01-11T07:23:46.297Z,35.43
2024-01-11T07:25:46.357Z,35.22
2024-01-11T07:28:46.275Z,35.35
2024-01-11T07:31:46.726Z,35.1
2024-01-11T07:33:47.577Z,34.95
2024-01-11T07:36:46.266Z,35.16
2024-01-11T07:38:46.994Z,35.13
2024-01-11T07:41:46.845Z,35.88
2024-01-11T07:43:49.569Z,35.63
2024-01-11T07:46:50.423Z,35.48
2024-01-11T07:49:46.443Z,35.01
2024-01-11T07:52:46.748Z,34.62
2024-01-11T07:55:46.845Z,35.36
2024-01-11T07:58:47.435Z,35.37
2024-01-11T08:00:46.850Z,34.75
2024-01-11T08:03:46.441Z,34.85
2024-01-11T08:05:46.432Z,35.23
2024-01-11T08:07:46.578Z,35.13
2024-01-11T08:09:47.100Z,35.56
2024-01-11T08:12:46.369Z,35.24
2024-01-11T08:14:46.807Z,34.82
2024-01-11T08:17:48.268Z,34.64
2024-01-11T08:19:46.625Z,35.2
2024-01-11T08:22:46.329Z,35.33
2024-01-11T08:24:47.117Z,34.92
2024-01-11T08:27:46.299Z,34.63
2024-01-11T08:30:46.286Z,34.83
2024-01-11T08:32:46.409Z,34.85
2024-01-11T08:34:46.534Z,35.02
2024-01-11T08:37:46.980Z,34.78
2024-01-11T08:39:47.155Z,34.42
2024-01-11T08:42:46.292Z,34.9
2024-01-11T08:44:46.365Z,35.13
2024-01-11T08:47:46.502Z,35.32
2024-01-11T08:50:46.282Z,34.79
2024-01-11T08:52:46.266Z,34.57
2024-01-11T08:55:47.229Z,34.76
2024-01-11T08:57:46.921Z,35.05
2024-01-11T09:00:46.299Z,35.08
2024-01-11T09:03:46.323Z,35.13
2024-01-11T09:05:46.801Z,34.95
2024-01-11T09:08:46.333Z,35.5
2024-01-11T09:10:46.827Z,35.58
2024-01-11T09:12:46.892Z,35.46
2024-01-11T09:15:46.986Z,35.66
2024-01-11T09:18:46.847Z,35.86
2024-01-11T09:21:46.895Z,36.4
2024-01-11T09:24:46.272Z,35.8
2024-01-11T09:26:46.733Z,35.6
2024-01-11T09:29:46.521Z,35.58
2024-01-11T09:31:46.969Z,35.4
2024-01-11T09:34:46.487Z,34.79
2024-01-11T09:36:46.843Z,35.17
2024-01-11T09:39:46.253Z,34.46
2024-01-11T09:41:46.896Z,34.41
2024-01-11T09:43:46.925Z,34.71
2024-01-11T09:46:46.460Z,34.78
2024-01-11T09:49:51.662Z,34.61
2024-01-11T09:52:46.243Z,34.53
2024-01-11T09:54:46.363Z,34.16
2024-01-11T09:56:46.717Z,34.47
2024-01-11T09:58:46.804Z,34.14
2024-01-11T10:01:46.336Z,33.77
2024-01-11T10:04:46.282Z,33.87
2024-01-11T10:06:46.646Z,33.66
2024-01-11T10:09:46.411Z,33.63
2024-01-11T10:11:47.024Z,33.32
2024-01-11T10:14:46.374Z,33.74
2024-01-11T10:16:46.361Z,33.87
2024-01-11T10:19:47.000Z,34.1
2024-01-11T10:22:46.864Z,34.27
2024-01-11T10:25:47.065Z,34.39
2024-01-11T10:28:46.379Z,34.14
2024-01-11T10:30:46.992Z,34.09
2024-01-11T10:33:47.107Z,33.85
2024-01-11T10:36:46.295Z,33.88
2024-01-11T10:38:46.932Z,33.47
2024-01-11T10:40:47.072Z,33.57
2024-01-11T10:43:47.078Z,33.37
2024-01-11T10:45:47.118Z,33.33
2024-01-11T10:48:46.918Z,32.91
2024-01-11T10:51:46.574Z,32.67
2024-01-11T10:54:47.004Z,32.92
2024-01-11T10:56:47.217Z,32.91
2024-01-11T10:59:46.398Z,32.97
2024-01-11T11:01:46.282Z,32.96
2024-01-11T11:03:46.991Z,33.24
2024-01-11T11:06:46.366Z,33.45
2024-01-11T11:08:46.462Z,33.66
2024-01-11T11:10:46.852Z,33.73
2024-01-11T11:13:46.281Z,33.84
2024-01-11T11:15:46.742Z,33.88
2024-01-11T11:18:46.706Z,33.56
2024-01-11T11:21:47.089Z,33.18
2024-01-11T11:24:47.138Z,33.11
2024-01-11T11:27:47.111Z,32.89
2024-01-11T11:30:47.128Z,32.79
2024-01-11T11:33:46.701Z,32.75
2024-01-11T11:36:46.845Z,32.41
2024-01-11T11:38:47.176Z,32.62
2024-01-11T11:41:46.955Z,32.44
2024-01-11T11:44:46.372Z,32.65
2024-01-11T11:46:47.018Z,33.09
2024-01-11T11:49:46.625Z,32.67
2024-01-11T11:52:46.308Z,32.85
2024-01-11T11:54:46.746Z,32.68
2024-01-11T11:57:46.582Z,32.16
2024-01-11T11:59:46.835Z,32.2
2024-01-11T12:02:46.436Z,32.1
2024-01-11T12:04:46.999Z,31.63
2024-01-11T12:07:46.488Z,31.49
2024-01-11T12:10:46.265Z,31.5
2024-01-11T12:12:46.694Z,30.98
2024-01-11T12:15:47.186Z,31.43
2024-01-11T12:18:47.020Z,31.51
2024-01-11T12:20:46.972Z,31.59
2024-01-11T12:23:46.350Z,31.8
2024-01-11T12:26:47.662Z,30.5
2024-01-11T12:29:52.373Z,31.01
2024-01-11T12:32:48.193Z,30.57
2024-01-11T12:35:46.952Z,30.56
2024-01-11T12:38:47.201Z,30.47
2024-01-11T12:40:47.109Z,29.91
2024-01-11T12:43:46.325Z,30.12
2024-01-11T12:46:46.296Z,30.16
2024-01-11T12:49:46.683Z,29.73
2024-01-11T12:52:46.232Z,29.68
2024-01-11T12:54:46.483Z,29.42
2024-01-11T12:56:46.804Z,29.43
2024-01-11T12:59:46.314Z,30.35
2024-01-11T13:01:46.347Z,29.37
2024-01-11T13:03:46.332Z,29.78
2024-01-11T13:06:46.730Z,28.96
2024-01-11T13:09:46.318Z,29.21
2024-01-11T13:12:51.139Z,29.24
2024-01-11T13:14:46.400Z,28.68
2024-01-11T13:16:46.524Z,29.16
2024-01-11T13:19:46.624Z,28.59
2024-01-11T13:22:46.712Z,28.71
2024-01-11T13:25:46.586Z,28.9
2024-01-11T13:27:46.665Z,29.49
2024-01-11T13:29:47.002Z,29.21
2024-01-11T13:32:47.081Z,28.49
2024-01-11T13:35:47.352Z,28.84
2024-01-11T13:38:46.806Z,29.18
2024-01-11T13:41:46.317Z,28.3
2024-01-11T13:43:46.627Z,28.46
2024-01-11T13:46:46.350Z,28.01
2024-01-11T13:48:46.648Z,28.02
2024-01-11T13:51:50.271Z,28.75
2024-01-11T13:53:46.392Z,28.04
2024-01-11T13:55:46.703Z,27.87
2024-01-11T13:57:46.772Z,28.26
2024-01-11T14:00:46.326Z,28.16
2024-01-11T14:03:46.480Z,28.38
2024-01-11T14:05:46.787Z,28.27
2024-01-11T14:08:46.649Z,28.83
2024-01-11T14:11:47.494Z,28.09
2024-01-11T14:14:46.959Z,28.07
2024-01-11T14:17:46.603Z,27.96
2024-01-11T14:19:47.233Z,27.93
2024-01-11T14:22:46.296Z,27.75
2024-01-11T14:24:46.728Z,27.43
2024-01-11T14:27:46.682Z,27.47
2024-01-11T14:29:46.282Z,27.44
2024-01-11T14:32:46.664Z,28.72
2024-01-11T14:34:47.107Z,27.88
2024-01-11T14:37:46.299Z,28.14
2024-01-11T14:39:46.361Z,28.05
2024-01-11T14:41:46.569Z,28.32
2024-01-11T14:44:46.508Z,28.4
2024-01-11T14:47:46.417Z,28.71
2024-01-11T14:49:46.466Z,28.59
2024-01-11T14:51:47.094Z,28.97
2024-01-11T14:54:46.298Z,28.25
2024-01-11T14:56:46.483Z,28.86
2024-01-11T14:59:46.614Z,28.57
2024-01-11T15:01:46.909Z,28.33
2024-01-11T15:03:46.765Z,28.32
2024-01-11T15:05:46.853Z,28.2
2024-01-11T15:08:46.324Z,28.2
2024-01-11T15:10:46.322Z,28.48
2024-01-11T15:13:47.213Z,28.6
2024-01-11T15:16:46.280Z,28.97
2024-01-11T15:18:47.311Z,29.09
2024-01-11T15:21:48.757Z,29.48
2024-01-11T15:23:46.371Z,29.75
2024-01-11T15:25:47.159Z,29.92
2024-01-11T15:28:46.297Z,30.58
2024-01-11T15:31:46.491Z,31.44
2024-01-11T15:33:47.181Z,31.56
2024-01-11T15:36:46.297Z,32.04
2024-01-11T15:38:46.733Z,32.53
2024-01-11T15:41:46.327Z,31.93
2024-01-11T15:43:46.310Z,32.04
2024-01-11T15:45:46.305Z,32.15
2024-01-11T15:47:46.555Z,32.06
2024-01-11T15:50:46.468Z,32.2
2024-01-11T15:53:46.331Z,31.76
2024-01-11T15:55:46.617Z,32.42
2024-01-11T15:58:46.327Z,32.48
2024-01-11T16:00:48.171Z,31.34
2024-01-11T16:02:47.431Z,32.61
2024-01-11T16:05:46.480Z,32.3
2024-01-11T16:08:46.983Z,33.16
2024-01-11T16:11:46.609Z,33.18
2024-01-11T16:14:47.268Z,32.91
2024-01-11T16:17:46.852Z,32.61
2024-01-11T16:20:46.425Z,33.22
2024-01-11T16:22:46.317Z,32.75
2024-01-11T16:25:47.050Z,32.86
2024-01-11T16:28:46.301Z,32.42
2024-01-11T16:30:46.758Z,32.65
2024-01-11T16:32:46.751Z,32.91
2024-01-11T16:35:49.729Z,33.23
2024-01-11T16:37:46.320Z,32.43
2024-01-11T16:39:46.320Z,33.61
2024-01-11T16:42:46.774Z,33.98
2024-01-11T16:45:46.256Z,33.38
2024-01-11T16:47:46.612Z,33.16
2024-01-11T16:50:46.413Z,33.17
2024-01-11T16:52:47.056Z,33.83
2024-01-11T16:56:46.437Z,33.79
2024-01-11T16:58:46.771Z,33.64
2024-01-11T17:00:48.113Z,33.24
2024-01-11T17:03:46.331Z,32.98
2024-01-11T17:05:46.470Z,33.25
2024-01-11T17:07:51.477Z,33.48
2024-01-11T17:09:46.671Z,33.75
2024-01-11T17:12:46.775Z,33.24
2024-01-11T17:15:46.846Z,32.89
2024-01-11T17:18:46.355Z,32.62
2024-01-11T17:21:46.409Z,33.73
2024-01-11T17:24:46.275Z,34.03
2024-01-11T17:26:46.328Z,34.33
2024-01-11T17:29:46.343Z,34.3
2024-01-11T17:31:46.317Z,33.6
2024-01-11T17:33:47.839Z,33.51
2024-01-11T17:35:46.633Z,33.89
2024-01-11T17:37:47.022Z,33.58
2024-01-11T17:40:46.502Z,33.72
2024-01-11T17:43:47.090Z,33.48
2024-01-11T17:46:46.316Z,33.21
2024-01-11T17:48:46.787Z,32.84
2024-01-11T17:50:47.313Z,33.16
2024-01-11T17:53:46.529Z,33.22
2024-01-11T17:55:47.034Z,33.8
2024-01-11T17:58:47.156Z,33.91
2024-01-11T18:00:47.341Z,33.58
2024-01-11T18:03:46.388Z,32.64
2024-01-11T18:06:47.017Z,32.7
2024-01-11T18:09:46.268Z,32.8
2024-01-11T18:11:46.821Z,34.25
2024-01-11T18:14:47.217Z,32.67
2024-01-11T18:17:46.497Z,33.25
2024-01-11T18:20:46.320Z,33.55
2024-01-11T18:22:46.330Z,33.1
2024-01-11T18:25:46.291Z,33.73
2024-01-11T18:27:46.318Z,33.54
2024-01-11T18:29:46.313Z,34.17
2024-01-11T18:32:46.272Z,32.78
2024-01-11T18:34:46.366Z,33.32
2024-01-11T18:36:46.947Z,34.82
2024-01-11T18:39:46.383Z,33.94
2024-01-11T18:41:47.060Z,33.81
2024-01-11T18:44:47.323Z,34.2
2024-01-11T18:47:46.362Z,33.34
2024-01-11T18:49:47.297Z,34.39
2024-01-11T18:52:46.484Z,33.66
2024-01-11T18:54:51.086Z,33.64
2024-01-11T18:57:47.112Z,34.17
2024-01-11T19:00:46.836Z,33.98
2024-01-11T19:03:48.041Z,32.57
2024-01-11T19:06:46.823Z,33.6
2024-01-11T19:09:46.938Z,33.64
2024-01-11T19:12:46.292Z,34.25
2024-01-11T19:14:47.143Z,33.05
2024-01-11T19:17:46.846Z,33.9
2024-01-11T19:20:46.440Z,34.05
2024-01-11T19:23:46.276Z,33.27
2024-01-11T19:26:46.701Z,33.48
2024-01-11T19:29:47.038Z,33.93
2024-01-11T19:32:46.418Z,34.54
2024-01-11T19:34:46.388Z,33.99
2024-01-11T19:37:46.262Z,33.69
2024-01-11T19:39:46.298Z,34.73
2024-01-11T19:41:46.395Z,33.66
2024-01-11T19:44:46.374Z,33.66
2024-01-11T19:47:46.467Z,35.01
2024-01-11T19:50:51.548Z,33.27
2024-01-11T19:53:47.019Z,34.48
2024-01-11T19:56:47.071Z,33.84
2024-01-11T19:59:46.386Z,34.16
2024-01-11T20:01:47.200Z,34.3
2024-01-11T20:04:47.091Z,35
2024-01-11T20:07:46.320Z,35.92
2024-01-11T20:10:46.285Z,36.33
2024-01-11T20:13:47.045Z,36.01
2024-01-11T20:16:46.333Z,35.98
2024-01-11T20:19:46.522Z,36.26
2024-01-11T20:21:46.640Z,36.08
2024-01-11T20:24:46.358Z,36.48
2024-01-11T20:26:47.151Z,36.83
2024-01-11T20:29:46.304Z,37.21
2024-01-11T20:32:46.416Z,37.14
2024-01-11T20:34:46.425Z,37.04
2024-01-11T20:36:47.062Z,37.55
2024-01-11T20:39:46.347Z,37.68
2024-01-11T20:42:46.317Z,38.03
2024-01-11T20:45:46.282Z,39.17
2024-01-11T20:47:47.146Z,37.85
2024-01-11T20:50:46.963Z,38.3
2024-01-11T20:53:46.417Z,38.92
2024-01-11T20:55:47.212Z,38.5
2024-01-11T20:58:46.488Z,38.78
2024-01-11T21:01:47.367Z,38.38
2024-01-11T21:04:46.955Z,36.9
2024-01-11T21:07:46.314Z,37.97
2024-01-11T21:09:46.524Z,37.68
2024-01-11T21:12:46.706Z,37.3
2024-01-11T21:15:46.568Z,37.59
2024-01-11T21:18:46.488Z,37.63
2024-01-11T21:21:47.121Z,36.98
2024-01-11T21:24:46.541Z,37.35
2024-01-11T21:27:46.787Z,37.64
2024-01-11T21:30:46.377Z,37.74
2024-01-11T21:32:46.749Z,38.33
2024-01-11T21:35:47.571Z,37.88
2024-01-11T21:38:46.460Z,38.17
2024-01-11T21:40:46.818Z,37.78
2024-01-11T21:43:46.356Z,37.9
2024-01-11T21:45:47.122Z,37.65
2024-01-11T21:47:49.364Z,37.27
2024-01-11T21:50:46.348Z,36.65
2024-01-11T21:52:46.796Z,37.53
2024-01-11T21:55:46.330Z,38
2024-01-11T21:57:47.383Z,38.09
2024-01-11T22:00:46.981Z,38.16
2024-01-11T22:03:47.025Z,38.51
2024-01-11T22:06:46.422Z,38.29
2024-01-11T22:08:46.541Z,38.53
2024-01-11T22:11:46.528Z,37.7
2024-01-11T22:14:46.300Z,37.71
2024-01-11T22:16:46.396Z,37.61
2024-01-11T22:19:46.686Z,37.81
2024-01-11T22:22:47.062Z,37.79
2024-01-11T22:25:46.490Z,37.99
2024-01-11T22:28:46.322Z,37.78
2024-01-11T22:30:46.633Z,37.61
2024-01-11T22:33:46.470Z,37.68
2024-01-11T22:35:46.824Z,37.94
2024-01-11T22:38:46.573Z,37.56
2024-01-11T22:40:46.589Z,38.19
2024-01-11T22:43:47.259Z,38.96
2024-01-11T22:46:46.299Z,38.5
2024-01-11T22:48:46.785Z,38.29
2024-01-11T22:51:46.662Z,37.8
2024-01-11T22:54:46.314Z,37.61
2024-01-11T22:57:46.809Z,37.38
2024-01-11T23:00:46.287Z,37.34
2024-01-11T23:02:46.307Z,36.74
2024-01-11T23:04:46.879Z,38.55
2024-01-11T23:07:46.276Z,38.41
2024-01-11T23:10:46.314Z,38.31
2024-01-11T23:12:47.007Z,37.5
2024-01-11T23:15:51.278Z,37.57
2024-01-11T23:17:46.396Z,37.16
2024-01-11T23:19:46.455Z,37.3
2024-01-11T23:22:47.157Z,37.17
2024-01-11T23:25:46.320Z,36.63
2024-01-11T23:27:46.423Z,36.6
2024-01-11T23:30:46.535Z,36.62
2024-01-11T23:33:47.289Z,36.9
2024-01-11T23:36:46.718Z,36.75
2024-01-11T23:39:46.290Z,37.02
2024-01-11T23:41:46.438Z,36.91
2024-01-11T23:43:52.149Z,37.38
2024-01-11T23:46:46.261Z,37.17
2024-01-11T23:48:46.353Z,37.6
2024-01-11T23:50:46.411Z,37.8
2024-01-11T23:53:46.375Z,37.7
2024-01-11T23:56:47.200Z,38.25
2024-01-11T23:59:46.764Z,38.8
